createdAt,value
2023-04-28T00:00:37.553Z,70.12
2023-04-28T00:04:06.313Z,69.84
2023-04-28T00:07:35.567Z,69.96
2023-04-28T00:10:38.452Z,70.37
2023-04-28T00:13:48.184Z,70.69
2023-04-28T00:17:04.538Z,70.81
2023-04-28T00:20:17.647Z,70.74
2023-04-28T00:23:10.940Z,70.22
2023-04-28T00:25:57.003Z,70.68
2023-04-28T00:28:51.174Z,70.97
2023-04-28T00:32:30.582Z,71.17
2023-04-28T00:35:12.831Z,71.29
2023-04-28T00:38:53.883Z,71.21
2023-04-28T00:42:04.545Z,71.08
2023-04-28T00:45:10.008Z,71.14
2023-04-28T00:48:28.517Z,71.49
2023-04-28T00:51:24.177Z,71.73
2023-04-28T00:54:39.041Z,72.02
2023-04-28T00:57:57.753Z,71.85
2023-04-28T01:00:59.987Z,72.15
2023-04-28T01:04:15.722Z,72.24
2023-04-28T01:07:43.012Z,72.43
2023-04-28T01:10:34.256Z,72.50
2023-04-28T01:13:39.377Z,72.42
2023-04-28T01:16:59.332Z,72.69
2023-04-28T01:19:37.679Z,72.64
2023-04-28T01:22:31.995Z,72.95
2023-04-28T01:25:32.390Z,72.83
2023-04-28T01:29:41.961Z,72.91
2023-04-28T01:33:21.467Z,72.90
2023-04-28T01:36:59.902Z,72.82
2023-04-28T01:40:33.940Z,72.76
2023-04-28T01:43:46.061Z,72.95
2023-04-28T01:46:55.181Z,72.74
2023-04-28T01:50:06.960Z,72.56
2023-04-28T01:53:16.107Z,72.92
2023-04-28T01:56:21.446Z,72.96
2023-04-28T01:59:36.316Z,72.65
2023-04-28T02:03:10.925Z,72.50
2023-04-28T02:06:02.995Z,72.53
2023-04-28T02:09:24.735Z,73.09
2023-04-28T02:12:42.858Z,73.45
2023-04-28T02:15:36.771Z,73.47
2023-04-28T02:18:49.388Z,73.57
2023-04-28T02:21:58.576Z,73.54
2023-04-28T02:25:10.719Z,73.87
2023-04-28T02:28:33.119Z,73.99
2023-04-28T02:31:19.109Z,73.91
2023-04-28T02:34:28.417Z,73.73
2023-04-28T02:38:17.946Z,73.88
2023-04-28T02:41:42.445Z,74.00
2023-04-28T02:44:52.037Z,74.00
2023-04-28T02:48:01.010Z,74.03
2023-04-28T02:51:26.119Z,73.79
2023-04-28T02:55:10.641Z,73.65
2023-04-28T02:58:09.649Z,73.74
2023-04-28T03:01:31.881Z,73.74
2023-04-28T03:05:41.393Z,73.63
2023-04-28T03:09:07.965Z,73.66
2023-04-28T03:12:08.148Z,73.79
2023-04-28T03:15:12.677Z,74.00
2023-04-28T03:18:18.892Z,74.03
2023-04-28T03:21:42.503Z,73.97
2023-04-28T03:25:21.893Z,73.83
2023-04-28T03:28:54.429Z,73.80
2023-04-28T03:32:53.988Z,73.87
2023-04-28T03:36:08.511Z,73.49
2023-04-28T03:39:23.182Z,73.29
2023-04-28T03:42:27.699Z,73.57
2023-04-28T03:46:01.576Z,73.31
2023-04-28T03:49:10.443Z,73.09
2023-04-28T03:52:04.777Z,73.02
2023-04-28T03:55:16.658Z,73.02
2023-04-28T03:58:31.406Z,72.90
2023-04-28T04:01:50.498Z,72.66
2023-04-28T04:05:14.599Z,72.58
2023-04-28T04:08:03.975Z,72.52
2023-04-28T04:10:56.017Z,72.54
2023-04-28T04:13:48.251Z,72.54
2023-04-28T04:16:26.908Z,72.62
2023-04-28T04:19:34.308Z,72.50
2023-04-28T04:22:23.441Z,72.38
2023-04-28T04:25:32.422Z,72.09
2023-04-28T04:28:21.986Z,72.05
2023-04-28T04:31:24.108Z,71.95
2023-04-28T04:34:13.604Z,71.91
2023-04-28T04:37:09.245Z,72.08
2023-04-28T04:40:02.610Z,72.03
2023-04-28T04:42:40.566Z,71.91
2023-04-28T04:45:25.016Z,71.97
2023-04-28T04:47:57.133Z,71.85
2023-04-28T04:50:36.767Z,71.58
2023-04-28T04:53:08.472Z,71.61
2023-04-28T04:55:45.560Z,71.51
2023-04-28T04:58:14.663Z,71.20
2023-04-28T05:01:02.721Z,70.89
2023-04-28T05:03:31.962Z,70.87
2023-04-28T05:06:01.766Z,70.68
2023-04-28T05:08:43.220Z,70.63
2023-04-28T05:11:12.725Z,70.61
2023-04-28T05:13:46.737Z,70.56
2023-04-28T05:16:18.529Z,70.35
2023-04-28T05:19:02.842Z,70.18
2023-04-28T05:21:31.464Z,70.20
2023-04-28T05:24:00.718Z,70.16
2023-04-28T05:26:29.701Z,70.00
2023-04-28T05:29:04.551Z,69.90
2023-04-28T05:31:33.269Z,69.55
2023-04-28T05:34:03.381Z,69.26
2023-04-28T05:36:32.357Z,69.07
2023-04-28T05:39:01.460Z,68.87
2023-04-28T05:41:33.312Z,68.73
2023-04-28T05:44:02.169Z,68.42
2023-04-28T05:46:32.126Z,68.45
2023-04-28T05:49:01.616Z,68.29
2023-04-28T05:51:34.620Z,68.23
2023-04-28T05:54:04.127Z,68.06
2023-04-28T05:56:41.835Z,67.98
2023-04-28T05:59:14.821Z,67.81
2023-04-28T06:01:43.773Z,67.69
2023-04-28T06:04:16.946Z,67.58
2023-04-28T06:06:49.035Z,67.28
2023-04-28T06:09:18.609Z,66.95
2023-04-28T06:11:48.048Z,66.53
2023-04-28T06:14:17.535Z,66.28
2023-04-28T06:16:46.662Z,66.08
2023-04-28T06:19:19.240Z,65.64
2023-04-28T06:21:50.690Z,65.25
2023-04-28T06:24:19.733Z,64.99
2023-04-28T06:26:55.312Z,64.63
2023-04-28T06:29:24.435Z,64.63
2023-04-28T06:31:56.487Z,64.29
2023-04-28T06:34:31.315Z,63.57
2023-04-28T06:37:00.122Z,63.42
2023-04-28T06:39:29.299Z,63.43
2023-04-28T06:41:58.003Z,63.32
2023-04-28T06:44:29.354Z,63.35
2023-04-28T06:46:58.246Z,62.88
2023-04-28T06:49:27.305Z,62.71
2023-04-28T06:52:03.702Z,62.58
2023-04-28T06:54:32.489Z,61.92
2023-04-28T06:57:01.128Z,61.56
2023-04-28T06:59:32.803Z,61.47
2023-04-28T07:02:01.739Z,61.28
2023-04-28T07:04:30.761Z,60.81
2023-04-28T07:07:02.244Z,60.66
2023-04-28T07:09:31.678Z,60.36
2023-04-28T07:12:00.537Z,60.20
2023-04-28T07:14:38.051Z,59.66
2023-04-28T07:17:06.823Z,59.25
2023-04-28T07:19:38.696Z,59.22
2023-04-28T07:22:07.928Z,59.01
2023-04-28T07:24:36.878Z,58.33
2023-04-28T07:27:05.573Z,57.96
2023-04-28T07:29:35.408Z,57.32
2023-04-28T07:32:09.198Z,57.22
2023-04-28T07:34:38.267Z,56.68
2023-04-28T07:37:07.298Z,56.35
2023-04-28T07:39:36.224Z,56.28
2023-04-28T07:42:05.423Z,55.81
2023-04-28T07:44:59.080Z,55.55
2023-04-28T07:47:30.061Z,54.80
2023-04-28T07:50:00.745Z,54.51
2023-04-28T07:52:33.231Z,54.38
2023-04-28T07:55:03.407Z,53.68
2023-04-28T07:57:32.494Z,53.86
2023-04-28T08:00:03.869Z,53.14
2023-04-28T08:02:40.954Z,52.62
2023-04-28T08:05:11.029Z,52.12
2023-04-28T08:07:40.880Z,51.79
2023-04-28T08:10:13.240Z,51.65
2023-04-28T08:12:42.623Z,51.12
2023-04-28T08:15:12.458Z,50.72
2023-04-28T08:17:41.491Z,50.32
2023-04-28T08:20:11.001Z,50.30
2023-04-28T08:22:39.840Z,50.30
2023-04-28T08:25:11.286Z,49.67
2023-04-28T08:27:41.111Z,49.03
2023-04-28T08:30:10.608Z,49.24
2023-04-28T08:32:39.222Z,48.88
2023-04-28T08:35:08.668Z,48.44
2023-04-28T08:37:37.482Z,48.30
2023-04-28T08:40:10.244Z,48.04
2023-04-28T08:42:39.889Z,48.16
2023-04-28T08:45:13.270Z,47.72
2023-04-28T08:47:46.308Z,47.89
2023-04-28T08:50:15.128Z,47.89
2023-04-28T08:52:43.940Z,47.75
2023-04-28T08:55:15.888Z,47.73
2023-04-28T08:57:46.334Z,47.47
2023-04-28T09:00:15.308Z,47.15
2023-04-28T09:02:44.009Z,47.05
2023-04-28T09:05:14.440Z,46.94
2023-04-28T09:07:49.114Z,46.68
2023-04-28T09:10:27.644Z,46.16
2023-04-28T09:12:57.933Z,45.82
2023-04-28T09:15:28.429Z,45.53
2023-04-28T09:17:58.362Z,45.49
2023-04-28T09:20:29.711Z,45.32
2023-04-28T09:23:20.598Z,45.10
2023-04-28T09:26:02.530Z,44.61
2023-04-28T09:28:32.659Z,44.20
2023-04-28T09:31:04.368Z,44.08
2023-04-28T09:33:33.142Z,43.67
2023-04-28T09:36:02.139Z,43.47
2023-04-28T09:38:30.647Z,43.40
2023-04-28T09:41:02.102Z,43.36
2023-04-28T09:43:35.478Z,43.49
2023-04-28T09:46:07.768Z,43.37
2023-04-28T09:48:39.526Z,42.89
2023-04-28T09:51:09.880Z,42.43
2023-04-28T09:53:40.188Z,42.39
2023-04-28T09:56:09.029Z,42.15
2023-04-28T09:58:41.261Z,41.95
2023-04-28T10:01:11.959Z,42.03
2023-04-28T10:03:41.555Z,41.83
2023-04-28T10:06:10.344Z,41.21
2023-04-28T10:08:40.455Z,41.33
2023-04-28T10:11:10.117Z,40.85
2023-04-28T10:13:39.179Z,40.98
2023-04-28T10:16:08.763Z,40.75
2023-04-28T10:18:39.229Z,40.76
2023-04-28T10:21:09.712Z,40.56
2023-04-28T10:23:53.784Z,39.99
2023-04-28T10:26:37.246Z,39.59
2023-04-28T10:29:07.234Z,39.45
2023-04-28T10:31:37.500Z,39.32
2023-04-28T10:34:25.910Z,39.28
2023-04-28T10:36:56.130Z,39.31
2023-04-28T10:39:24.850Z,39.04
2023-04-28T10:41:53.395Z,39.24
2023-04-28T10:44:30.850Z,39.52
2023-04-28T10:47:10.762Z,39.68
2023-04-28T10:49:58.332Z,39.57
2023-04-28T10:52:33.440Z,39.52
2023-04-28T10:55:27.792Z,39.49
2023-04-28T10:58:21.487Z,38.98
2023-04-28T11:00:53.111Z,38.84
2023-04-28T11:04:06.367Z,38.84
2023-04-28T11:07:07.833Z,39.11
2023-04-28T11:09:37.093Z,38.93
2023-04-28T11:12:07.070Z,38.27
2023-04-28T11:14:40.913Z,38.39
2023-04-28T11:17:13.790Z,38.12
2023-04-28T11:19:54.319Z,38.10
2023-04-28T11:22:25.816Z,38.11
2023-04-28T11:24:59.068Z,37.10
2023-04-28T11:27:32.005Z,37.83
2023-04-28T11:30:02.263Z,37.79
2023-04-28T11:32:37.860Z,37.22
2023-04-28T11:35:10.114Z,36.99
2023-04-28T11:37:39.678Z,36.77
2023-04-28T11:40:13.356Z,35.35
2023-04-28T11:42:49.338Z,35.69
2023-04-28T11:45:18.398Z,35.88
2023-04-28T11:47:47.710Z,36.32
2023-04-28T11:50:17.040Z,35.98
2023-04-28T11:52:52.532Z,35.91
2023-04-28T11:55:22.777Z,35.91
2023-04-28T11:58:22.629Z,35.61
2023-04-28T12:01:11.715Z,35.70
2023-04-28T12:03:45.338Z,35.60
2023-04-28T12:06:20.284Z,35.41
2023-04-28T12:08:49.712Z,35.40
2023-04-28T12:11:20.670Z,35.35
2023-04-28T12:14:09.030Z,35.41
2023-04-28T12:16:40.453Z,35.42
2023-04-28T12:19:11.268Z,35.07
2023-04-28T12:25:21.958Z,34.65
2023-04-28T12:28:08.776Z,34.13
2023-04-28T12:30:44.713Z,34.07
2023-04-28T12:33:25.248Z,33.62
2023-04-28T12:35:55.844Z,33.69
2023-04-28T12:38:26.395Z,33.80
2023-04-28T12:40:55.438Z,33.89
2023-04-28T12:43:27.670Z,33.82
2023-04-28T12:45:57.375Z,33.46
2023-04-28T12:48:26.030Z,33.42
2023-04-28T12:50:54.694Z,33.36
2023-04-28T12:53:23.490Z,33.45
2023-04-28T12:55:52.733Z,33.38
2023-04-28T12:58:21.787Z,33.66
2023-04-28T13:00:50.685Z,33.72
2023-04-28T13:03:21.901Z,33.61
2023-04-28T13:05:52.083Z,33.56
2023-04-28T13:08:22.119Z,33.43
2023-04-28T13:10:51.441Z,33.06
2023-04-28T13:13:35.039Z,32.95
2023-04-28T13:16:17.149Z,32.98
2023-04-28T13:18:51.616Z,33.09
2023-04-28T13:21:21.890Z,33.25
2023-04-28T13:23:50.630Z,33.37
2023-04-28T13:26:20.322Z,33.58
2023-04-28T13:28:49.131Z,33.48
2023-04-28T13:31:19.162Z,33.41
2023-04-28T13:33:47.713Z,32.91
2023-04-28T13:36:16.207Z,33.53
2023-04-28T13:38:49.087Z,33.48
2023-04-28T13:41:18.049Z,33.32
2023-04-28T13:43:46.460Z,33.79
2023-04-28T13:46:15.000Z,33.59
2023-04-28T13:48:43.624Z,33.71
2023-04-28T13:51:12.415Z,33.76
2023-04-28T13:53:40.669Z,34.01
2023-04-28T13:56:09.327Z,33.51
2023-04-28T13:58:37.953Z,32.77
2023-04-28T14:01:06.667Z,32.73
2023-04-28T14:03:36.371Z,32.87
2023-04-28T14:06:06.894Z,33.24
2023-04-28T14:08:35.468Z,32.63
2023-04-28T14:11:04.153Z,33.01
2023-04-28T14:13:33.591Z,33.01
2023-04-28T14:16:02.504Z,33.57
2023-04-28T14:18:31.227Z,33.82
2023-04-28T14:21:00.228Z,33.70
2023-04-28T14:23:29.005Z,33.91
2023-04-28T14:25:58.634Z,33.90
2023-04-28T14:28:27.223Z,34.34
2023-04-28T14:30:55.939Z,34.60
2023-04-28T14:33:24.889Z,34.63
2023-04-28T14:35:53.365Z,34.59
2023-04-28T14:38:22.053Z,34.21
2023-04-28T14:40:50.622Z,34.17
2023-04-28T14:43:19.116Z,34.31
2023-04-28T14:45:47.756Z,34.46
2023-04-28T14:48:16.490Z,34.56
2023-04-28T14:50:46.413Z,34.59
2023-04-28T14:53:15.013Z,34.50
2023-04-28T14:55:43.767Z,34.36
2023-04-28T14:58:12.439Z,34.45
2023-04-28T15:00:41.855Z,34.44
2023-04-28T15:03:10.566Z,34.68
2023-04-28T15:05:39.749Z,34.87
2023-04-28T15:08:08.269Z,34.97
2023-04-28T15:10:39.794Z,35.06
2023-04-28T15:13:08.372Z,35.16
2023-04-28T15:15:37.347Z,35.44
2023-04-28T15:18:05.750Z,35.66
2023-04-28T15:20:37.371Z,35.71
2023-04-28T15:23:06.356Z,35.71
2023-04-28T15:25:35.220Z,35.73
2023-04-28T15:28:05.089Z,35.88
2023-04-28T15:30:34.379Z,36.11
2023-04-28T15:33:02.930Z,36.33
2023-04-28T15:35:32.728Z,36.42
2023-04-28T15:38:02.072Z,36.53
2023-04-28T15:40:30.350Z,36.80
2023-04-28T15:42:59.066Z,37.13
2023-04-28T15:45:27.552Z,37.49
2023-04-28T15:47:56.585Z,37.74
2023-04-28T15:50:25.521Z,38.12
2023-04-28T15:52:54.213Z,38.37
2023-04-28T15:55:24.373Z,38.86
2023-04-28T15:57:53.136Z,39.28
2023-04-28T16:00:21.802Z,39.42
2023-04-28T16:02:50.696Z,39.39
2023-04-28T16:05:19.578Z,39.59
2023-04-28T16:07:48.788Z,39.71
2023-04-28T16:10:17.685Z,39.98
2023-04-28T16:12:46.771Z,40.16
2023-04-28T16:15:15.669Z,40.33
2023-04-28T16:17:44.695Z,40.68
2023-04-28T16:20:13.343Z,40.71
2023-04-28T16:22:43.662Z,40.94
2023-04-28T16:25:12.675Z,41.23
2023-04-28T16:27:41.872Z,41.54
2023-04-28T16:30:10.904Z,41.69
2023-04-28T16:32:41.084Z,41.84
2023-04-28T16:35:14.954Z,42.11
2023-04-28T16:37:44.177Z,42.19
2023-04-28T16:40:13.823Z,42.35
2023-04-28T16:42:43.781Z,42.62
2023-04-28T16:45:13.419Z,42.69
2023-04-28T16:47:45.102Z,42.81
2023-04-28T16:50:16.514Z,43.06
2023-04-28T16:52:45.203Z,43.21
2023-04-28T16:55:13.887Z,43.36
2023-04-28T16:57:43.428Z,43.47
2023-04-28T17:00:13.535Z,43.53
2023-04-28T17:02:42.683Z,43.68
2023-04-28T17:05:11.600Z,43.89
2023-04-28T17:07:40.180Z,44.00
2023-04-28T17:10:09.277Z,44.01
2023-04-28T17:12:37.864Z,43.99
2023-04-28T17:15:08.166Z,44.01
2023-04-28T17:17:37.677Z,44.00
2023-04-28T17:20:07.420Z,44.23
2023-04-28T17:22:35.787Z,44.36
2023-04-28T17:25:04.987Z,44.40
2023-04-28T17:27:33.351Z,44.77
2023-04-28T17:30:01.950Z,45.16
2023-04-28T17:32:39.707Z,45.27
2023-04-28T17:35:09.081Z,45.52
2023-04-28T17:37:38.028Z,45.74
2023-04-28T17:40:07.540Z,45.83
2023-04-28T17:42:36.013Z,45.93
2023-04-28T17:45:06.329Z,46.16
2023-04-28T17:47:34.858Z,46.45
2023-04-28T17:50:04.886Z,46.78
2023-04-28T17:52:34.355Z,46.98
2023-04-28T17:55:03.625Z,47.36
2023-04-28T17:57:35.165Z,47.67
2023-04-28T18:00:04.088Z,47.82
2023-04-28T18:02:41.511Z,48.00
2023-04-28T18:05:11.092Z,48.20
2023-04-28T18:07:41.502Z,48.49
2023-04-28T18:10:11.379Z,48.94
2023-04-28T18:12:40.224Z,49.06
2023-04-28T18:15:10.160Z,49.43
2023-04-28T18:17:39.052Z,49.88
2023-04-28T18:20:08.762Z,50.08
2023-04-28T18:22:37.821Z,50.26
2023-04-28T18:25:07.137Z,50.26
2023-04-28T18:27:35.915Z,50.64
2023-04-28T18:30:05.021Z,50.77
2023-04-28T18:32:34.387Z,51.01
2023-04-28T18:35:03.124Z,51.27
2023-04-28T18:37:33.534Z,51.05
2023-04-28T18:40:02.844Z,51.46
2023-04-28T18:42:33.169Z,51.87
2023-04-28T18:45:02.881Z,52.11
2023-04-28T18:47:32.095Z,52.39
2023-04-28T18:50:02.669Z,52.55
2023-04-28T18:52:31.687Z,52.63
2023-04-28T18:55:00.882Z,52.59
2023-04-28T18:57:30.333Z,52.85
2023-04-28T18:59:59.902Z,52.92
2023-04-28T19:02:28.839Z,52.83
2023-04-28T19:04:58.415Z,52.99
2023-04-28T19:07:27.800Z,53.30
2023-04-28T19:09:57.622Z,53.40
2023-04-28T19:12:26.752Z,53.85
2023-04-28T19:14:56.302Z,53.67
2023-04-28T19:17:25.691Z,53.90
2023-04-28T19:19:59.007Z,53.85
2023-04-28T19:22:35.815Z,53.81
2023-04-28T19:25:07.064Z,54.02
2023-04-28T19:27:38.490Z,54.26
2023-04-28T19:30:10.663Z,54.24
2023-04-28T19:32:40.654Z,54.27
2023-04-28T19:35:13.406Z,54.37
2023-04-28T19:37:43.270Z,54.40
2023-04-28T19:40:12.579Z,54.73
2023-04-28T19:42:44.750Z,54.57
2023-04-28T19:45:14.445Z,54.76
2023-04-28T19:47:43.801Z,54.95
2023-04-28T19:50:12.947Z,54.91
2023-04-28T19:52:42.136Z,54.96
2023-04-28T19:55:13.680Z,54.90
2023-04-28T19:57:48.445Z,54.93
2023-04-28T20:00:17.310Z,55.23
2023-04-28T20:02:46.250Z,55.63
2023-04-28T20:05:18.379Z,55.91
2023-04-28T20:07:48.528Z,56.11
2023-04-28T20:10:20.171Z,56.33
2023-04-28T20:12:49.749Z,56.49
2023-04-28T20:15:18.829Z,56.98
2023-04-28T20:17:47.914Z,57.29
2023-04-28T20:20:16.835Z,57.42
2023-04-28T20:22:48.964Z,57.21
2023-04-28T20:25:18.098Z,57.28
2023-04-28T20:27:50.066Z,57.68
2023-04-28T20:30:18.987Z,58.07
2023-04-28T20:32:48.962Z,57.90
2023-04-28T20:35:18.067Z,58.37
2023-04-28T20:37:47.021Z,58.62
2023-04-28T20:40:16.356Z,58.74
2023-04-28T20:42:45.251Z,59.26
2023-04-28T20:45:14.459Z,59.25
2023-04-28T20:47:53.100Z,59.48
2023-04-28T20:50:23.493Z,59.42
2023-04-28T20:52:52.299Z,59.59
2023-04-28T20:55:21.641Z,59.70
2023-04-28T20:57:50.571Z,59.94
2023-04-28T21:00:19.700Z,59.49
2023-04-28T21:02:49.146Z,59.52
2023-04-28T21:05:18.471Z,59.73
2023-04-28T21:07:47.374Z,60.09
2023-04-28T21:10:16.676Z,60.34
2023-04-28T21:12:49.371Z,60.75
2023-04-28T21:15:18.455Z,60.95
2023-04-28T21:17:47.248Z,61.48
2023-04-28T21:20:16.423Z,61.39
2023-04-28T21:22:48.377Z,61.51
2023-04-28T21:25:17.381Z,61.63
2023-04-28T21:27:45.973Z,61.82
2023-04-28T21:30:15.168Z,61.45
2023-04-28T21:32:43.869Z,61.93
2023-04-28T21:35:12.756Z,62.02
2023-04-28T21:37:42.052Z,62.31
2023-04-28T21:40:11.677Z,62.34
2023-04-28T21:42:40.134Z,62.48
2023-04-28T21:45:10.080Z,62.80
2023-04-28T21:47:39.836Z,62.75
2023-04-28T21:50:10.997Z,62.74
2023-04-28T21:52:39.804Z,62.86
2023-04-28T21:55:08.840Z,63.05
2023-04-28T21:57:37.662Z,63.27
2023-04-28T22:00:10.778Z,63.45
2023-04-28T22:02:44.268Z,63.21
2023-04-28T22:05:12.985Z,62.75
2023-04-28T22:07:42.358Z,62.68
2023-04-28T22:10:13.198Z,62.84
2023-04-28T22:12:42.292Z,63.06
2023-04-28T22:15:13.468Z,63.19
2023-04-28T22:17:42.580Z,63.16
2023-04-28T22:20:12.023Z,63.32
2023-04-28T22:22:41.835Z,63.40
2023-04-28T22:25:10.730Z,63.21
2023-04-28T22:27:44.861Z,63.13
2023-04-28T22:30:14.362Z,63.20
2023-04-28T22:32:47.524Z,63.11
2023-04-28T22:35:16.956Z,63.30
2023-04-28T22:37:45.618Z,63.80
2023-04-28T22:40:14.338Z,63.70
2023-04-28T22:42:45.682Z,63.93
2023-04-28T22:45:14.352Z,63.62
2023-04-28T22:47:46.051Z,63.65
2023-04-28T22:50:17.357Z,63.60
2023-04-28T22:52:48.123Z,63.57
2023-04-28T22:55:16.775Z,63.47
2023-04-28T22:57:46.301Z,63.57
2023-04-28T23:00:22.848Z,63.60
2023-04-28T23:02:51.830Z,63.63
2023-04-28T23:05:20.537Z,63.69
2023-04-28T23:07:49.373Z,63.94
2023-04-28T23:10:19.073Z,63.72
2023-04-28T23:12:47.709Z,63.83
2023-04-28T23:15:16.422Z,63.72
2023-04-28T23:17:45.118Z,63.82
2023-04-28T23:20:13.986Z,63.79
2023-04-28T23:22:45.740Z,63.68
2023-04-28T23:25:14.624Z,63.68
2023-04-28T23:27:43.507Z,63.71
2023-04-28T23:30:15.170Z,63.76
2023-04-28T23:32:44.218Z,64.04
2023-04-28T23:35:12.882Z,63.91
2023-04-28T23:37:47.583Z,64.06
2023-04-28T23:40:16.148Z,64.12
2023-04-28T23:42:45.261Z,64.09
2023-04-28T23:45:14.241Z,64.03
2023-04-28T23:47:45.266Z,64.06
2023-04-28T23:50:14.182Z,64.15
2023-04-28T23:52:44.025Z,64.24
2023-04-28T23:55:15.551Z,64.22
2023-04-28T23:57:46.680Z,64.44
